Terminal Aerodrome Forecast
Issued by NWS Wilmington, NC

Current Version | Previous Version | Graphics & Text | Print | Product List | Glossary Off
Versions: 1 2 3 4 5 6 7 8 9 10 11 12 13 14

000
FTUS42 KILM 222300
TAFLBT
TAF
KLBT 222339Z 2300/2324 03005KT 6SM -RA SCT040 BKN100
     FM230800 04007KT 6SM -RA BKN060
     FM231200 05010KT P6SM VCSH BKN025 BKN050 OVC120
     FM232100 04009KT P6SM VCSH SCT030 BKN060=

USA.gov is the U.S. government's official web portal to all federal, state and local government web resources and services.